Debord, Kentucky
Current Conditions -  °F | °C
As of 8:15 PM on Tuesday 21 Oct 2014 (Local Time) from KSJS Reporting Station
Overcast Overcast  
Wind Chill: 50°   Ceiling: 6500
Heat Index: 50°   Visibility: 10mi
Dew Point: 41°   Wind: 3mph
Humidity: 71%   Direction: 320°NW
Pressure: 30.09"   Gusts: NA
Location:  37.81°N, 82.55°W
Report Text: KSJS 220015Z AUTO 32003KT 10SM OVC065 10/05 A3009 RMK AO2 T01000049
Loading
Personal Weather Stations






























Interactive Weather Map
Tropical Storm Tracking
New forecast layout! Learn more

10-Day Weather Forecast

Advertisements
Track Severe Weather on mobile